Latest Coastal Weather Observations for Croker Island Airport

IDD60701

Issued at 11:15 am CST Thursday 23 October 2014 (issued every 10 minutes, with the page automatically refreshed every 10 minutes)

About coastal observations | Map of coastal stations | Coastal observations for NT | Marine services | Other Formats
Station Details ID: 014308 Name: CROKER ISLAND AIRPORT Lat: -11.16 Lon: 132.48 Height: 9.2 m
Data from the previous 72 hours. | See also: Recent months for locations in Northern Territory
Date/Time
CST
Temp

°C
Wind Pressure Rain
since 9am
mm
Weather Cloud Vis
km
Sea
Height
m
Swell
Dir
 
Speed
knots
Gust
knots
hPa Trend Height
m
Period
s
Dir
23/11:00am 31.6 ENE 8 13 1013.6 - - - - - - - - -
23/10:30am 31.3 E 8 13 1013.9 - - - - - - - - -
23/10:00am 31.1 E 8 14 1014.1 - - - - - - - - -
23/09:30am 30.6 E 7 12 1014.1 - - - - - - - - -
23/09:00am 29.6 E 7 11 1014.3 - - - - - - - - -
23/08:30am 29.3 E 7 12 1014.3 - - - - - - - - -
23/08:00am 28.0 E 7 9 1014.1 - - - - - - - - -
23/07:30am 27.1 E 4 8 1014.0 - - - - - - - - -
23/07:00am 24.6 ENE 2 2 1013.8 - - - - - - - - -
23/06:30am 23.3 NE 2 2 1013.4 - - - - - - - - -
23/06:00am 22.9 ENE 2 3 1013.1 - - - - - - - - -
23/05:30am 23.4 ENE 2 2 1012.7 - - - - - - - - -
23/05:00am 23.7 E 2 2 1012.4 - - - - - - - - -
23/04:30am 23.2 ENE 1 2 1012.1 - - - - - - - - -
23/04:00am 23.3 NE 1 2 1011.9 - - - - - - - - -
23/03:30am 23.8 ENE 1 2 1012.1 - - - - - - - - -
23/03:00am 23.8 E 2 2 1012.2 - - - - - - - - -
23/02:30am 24.3 ENE 1 2 1012.7 - - - - - - - - -
23/02:00am 24.8 ENE 3 4 1012.9 - - - - - - - - -
23/01:30am 24.8 E 3 4 1013.1 - - - - - - - - -
23/01:00am 24.9 ENE 4 5 1013.3 - - - - - - - - -
23/12:30am 24.8 E 3 3 1013.5 - - - - - - - - -
23/12:00am 25.2 NE 4 5 1013.6 - - - - - - - - -
 
Date/Time
CST
Temp

°C
Wind Pressure Rain
since 9am
mm
Weather Cloud Vis
km
Sea
Height
m
Swell
Dir
 
Speed
knots
Gust
knots
hPa Trend Height
m
Period
s
Dir
22/11:30pm 24.8 ENE 4 5 1013.8 - - - - - - - - -
22/11:00pm 24.6 ENE 2 4 1013.8 - - - - - - - - -
22/10:30pm 24.5 ENE 1 2 1013.7 - - - - - - - - -
22/10:00pm 24.9 CALM 0 1 1013.4 - - - - - - - - -
22/09:30pm 25.9 NE 3 4 1013.0 - - - - - - - - -
22/09:00pm 26.1 NE 4 7 1012.6 - - - - - - - - -
22/08:30pm 26.5 NE 4 7 1012.5 - - - - - - - - -
22/08:00pm 26.6 NE 5 8 1012.2 - - - - - - - - -
22/07:30pm 26.8 NE 4 7 1011.9 - - - - - - - - -
22/07:00pm 27.2 NE 6 10 1011.7 - - - - - - - - -
22/06:30pm 27.7 ENE 8 11 1011.5 - - - - - - - - -
22/06:00pm 28.4 NE 8 11 1011.2 - - - - - - - - -
22/05:30pm 29.3 NE 9 13 1010.9 - - - - - - - - -
22/05:00pm 30.0 ENE 9 12 1010.8 - - - - - - - - -
22/04:30pm 30.6 ENE 9 13 1010.6 - - - - - - - - -
22/04:00pm 31.8 ENE 10 14 1010.7 - - - - - - - - -
22/03:30pm 31.7 NE 10 15 1010.7 - - - - - - - - -
22/03:00pm 31.6 NE 11 17 1010.9 - - - - - - - - -
22/02:30pm 32.2 E 12 16 1011.2 - - - - - - - - -
22/02:00pm 32.3 E 10 16 1011.6 - - - - - - - - -
22/01:30pm 32.0 ENE 11 16 1012.0 - - - - - - - - -
22/01:00pm 32.7 ENE 11 16 1012.7 - - - - - - - - -
22/12:30pm 32.1 E 11 17 1013.2 - - - - - - - - -
22/12:00pm 32.2 E 10 18 1013.7 - - - - - - - - -
22/11:30am 32.5 ENE 10 16 1014.1 - - - - - - - - -
22/11:00am 32.5 E 9 15 1014.5 - - - - - - - - -
22/10:30am 31.7 E 9 14 1014.8 - - - - - - - - -
22/10:00am 31.1 E 8 12 1014.9 - - - - - - - - -
22/09:30am 30.5 E 8 13 1015.0 - - - - - - - - -
22/09:00am 30.0 E 9 13 1015.0 - - - - - - - - -
22/08:30am 29.0 ENE 7 10 1014.7 - - - - - - - - -
22/08:00am 27.7 ENE 5 8 1014.6 - - - - - - - - -
22/07:30am 26.5 E 3 5 1014.2 - - - - - - - - -
22/07:00am 24.9 ENE 2 3 1014.0 - - - - - - - - -
22/06:30am 24.2 NE 1 2 1013.5 - - - - - - - - -
22/06:00am 24.7 ENE 3 5 1013.3 - - - - - - - - -
22/05:30am 24.9 NE 3 6 1013.1 - - - - - - - - -
22/05:00am 24.0 ENE 1 2 1013.2 - - - - - - - - -
22/04:30am 24.4 ESE 2 3 1013.1 - - - - - - - - -
22/04:00am 24.9 E 3 5 1013.1 - - - - - - - - -
22/03:30am 24.5 SE 3 4 1013.1 - - - - - - - - -
22/03:00am 23.9 ESE 1 3 1012.9 - - - - - - - - -
22/02:30am 24.2 E 3 4 1013.1 - - - - - - - - -
22/02:00am 24.4 ENE 5 7 1013.0 - - - - - - - - -
22/01:30am 23.7 E 4 4 1013.2 - - - - - - - - -
22/01:00am 24.7 ENE 4 4 1013.7 - - - - - - - - -
22/12:30am 25.3 NE 2 4 1013.8 - - - - - - - - -
22/12:00am 25.6 NNE 3 5 1014.0 - - - - - - - - -
 
Date/Time
CST
Temp

°C
Wind Pressure Rain
since 9am
mm
Weather Cloud Vis
km
Sea
Height
m
Swell
Dir
 
Speed
knots
Gust
knots
hPa Trend Height
m
Period
s
Dir
21/11:30pm 25.8 NE 4 6 1014.2 - - - - - - - - -
21/11:00pm 25.9 NNE 3 5 1014.4 - - - - - - - - -
21/10:30pm 26.1 NNE 3 5 1014.6 - - - - - - - - -
21/10:00pm 26.3 NNE 4 6 1014.4 - - - - - - - - -
21/09:30pm 26.4 NE 5 7 1014.0 - - - - - - - - -
21/09:00pm 26.6 NE 7 10 1013.7 - - - - - - - - -
21/08:30pm 26.5 NE 6 10 1013.4 - - - - - - - - -
21/08:00pm 26.6 NE 5 8 1013.1 - - - - - - - - -
21/07:30pm 26.8 NE 6 10 1012.9 - - - - - - - - -
21/07:00pm 27.0 NE 8 13 1012.6 - - - - - - - - -
21/06:30pm 27.4 NE 10 14 1012.4 - - - - - - - - -
21/06:00pm 28.2 NE 10 14 1012.1 - - - - - - - - -
21/05:30pm 29.4 ENE 9 14 1011.9 - - - - - - - - -
21/05:00pm 30.1 NE 10 14 1011.7 - - - - - - - - -
21/04:30pm 31.2 ENE 10 16 1011.6 - - - - - - - - -
21/04:00pm 31.3 NE 10 17 1011.6 - - - - - - - - -
21/03:30pm 31.6 NE 12 17 1011.7 - - - - - - - - -
21/03:00pm 32.2 NE 9 16 1011.8 - - - - - - - - -
21/02:30pm 32.5 NE 10 16 1012.0 - - - - - - - - -
21/02:00pm 32.7 E 12 18 1012.5 - - - - - - - - -
21/01:30pm 32.9 E 11 19 1012.9 - - - - - - - - -
21/01:00pm 33.0 E 11 19 1013.4 - - - - - - - - -
21/12:30pm 32.5 ENE 10 17 1014.0 - - - - - - - - -
21/12:00pm 33.2 ENE 8 16 1014.7 - - - - - - - - -
21/11:30am 32.6 ENE 10 15 1015.0 - - - - - - - - -
21/11:00am 32.5 ENE 10 14 1015.2 - - - - - - - - -
21/10:30am 32.0 E 9 15 1015.3 - - - - - - - - -
21/10:00am 31.3 E 9 16 1015.6 - - - - - - - - -
21/09:30am 31.2 E 7 14 1015.4 - - - - - - - - -
21/09:00am 30.4 E 7 11 1015.2 - - - - - - - - -
21/08:30am 29.6 ENE 10 15 1015.1 - - - - - - - - -
21/08:00am 28.5 ENE 8 11 1014.8 - - - - - - - - -
21/07:30am 27.4 ENE 6 11 1014.7 - - - - - - - - -
21/07:00am 25.8 NE 4 6 1014.4 - - - - - - - - -
21/06:30am 24.7 NE 3 4 1014.2 - - - - - - - - -
21/06:00am 24.6 E 4 5 1014.1 - - - - - - - - -
21/05:30am 24.8 ENE 4 5 1013.8 - - - - - - - - -
21/05:00am 24.9 E 4 7 1013.8 - - - - - - - - -
21/04:30am 25.4 E 3 5 1013.5 - - - - - - - - -
21/04:00am 25.6 ENE 6 9 1013.0 - - - - - - - - -
21/03:30am 25.7 ENE 5 9 1013.0 - - - - - - - - -
21/03:00am 25.7 ENE 6 9 1013.1 - - - - - - - - -
21/02:30am 25.4 ENE 4 6 1013.1 - - - - - - - - -
21/02:00am 25.7 ENE 3 5 1013.2 - - - - - - - - -
21/01:30am 25.8 E 5 8 1013.3 - - - - - - - - -
21/01:00am 26.2 ENE 8 12 1013.4 - - - - - - - - -
21/12:30am 26.4 ENE 9 16 1013.7 - - - - - - - - -
21/12:00am 26.3 ENE 9 13 1013.9 - - - - - - - - -
 
Date/Time
CST
Temp

°C
Wind Pressure Rain
since 9am
mm
Weather Cloud Vis
km
Sea
Height
m
Swell
Dir
 
Speed
knots
Gust
knots
hPa Trend Height
m
Period
s
Dir
20/11:30pm 25.3 ENE 4 9 1014.0 - - - - - - - - -
20/11:00pm 24.4 E 2 3 1013.9 - - - - - - - - -
20/10:30pm 24.2 NE 1 4 1013.6 - - - - - - - - -
20/10:00pm 23.8 CALM 0 0 1013.5 - - - - - - - - -
20/09:30pm 23.7 E 1 4 1013.3 - - - - - - - - -
20/09:00pm 24.6 ENE 1 2 1012.8 - - - - - - - - -
20/08:30pm 25.9 ENE 3 4 1012.4 - - - - - - - - -
20/08:00pm 26.3 ENE 3 5 1012.1 - - - - - - - - -
20/07:30pm 26.6 ENE 5 8 1011.8 - - - - - - - - -
20/07:00pm 26.9 ENE 8 15 1011.5 - - - - - - - - -
20/06:30pm 27.1 ENE 11 18 1011.0 - - - - - - - - -
20/06:00pm 27.9 ENE 11 17 1010.7 - - - - - - - - -
20/05:30pm 28.5 ENE 13 19 1010.4 - - - - - - - - -
20/05:00pm 29.9 ENE 11 18 1010.3 - - - - - - - - -
20/04:30pm 30.8 ENE 12 19 1010.1 - - - - - - - - -
20/04:00pm 31.1 ENE 11 18 1010.3 - - - - - - - - -
20/03:30pm 31.3 ENE 12 18 1010.5 - - - - - - - - -
20/03:00pm 32.3 E 12 18 1010.9 - - - - - - - - -
20/02:30pm 31.8 E 14 20 1011.2 - - - - - - - - -
20/02:00pm 32.9 E 15 25 1011.6 - - - - - - - - -
20/01:30pm 32.3 E 15 21 1012.2 - - - - - - - - -
20/01:00pm 31.9 E 14 20 1012.7 - - - - - - - - -
20/12:30pm 32.5 E 14 20 1013.2 - - - - - - - - -
20/12:00pm 32.1 E 14 20 1013.8 - - - - - - - - -
20/11:30am 31.7 E 14 21 1014.3 - - - - - - - - -

Other Formats:

Comma delimited format used in spreadsheet applications
http://www.bom.gov.au/fwo/IDD60701/IDD60701.94108.axf

JavaScript Object Notation format (JSON) in row-major order
http://www.bom.gov.au/fwo/IDD60701/IDD60701.94108.json